sensor_id;sensor_type;location;lat;lon;timestamp;pressure;altitude;pressure_sealevel;temperature;humidity
44198;BME280;30157;55.512;37.764;2023-11-22T00:00:30;99979.06;;;-9.81;83.01
44198;BME280;30157;55.512;37.764;2023-11-22T00:02:56;99946.72;;;-9.98;82.81
44198;BME280;30157;55.512;37.764;2023-11-22T00:05:22;99959.25;;;-9.88;82.65
44198;BME280;30157;55.512;37.764;2023-11-22T00:07:47;99967.16;;;-9.83;82.47
44198;BME280;30157;55.512;37.764;2023-11-22T00:10:13;99970.69;;;-9.81;82.70
44198;BME280;30157;55.512;37.764;2023-11-22T00:12:39;99973.03;;;-9.83;82.79
44198;BME280;30157;55.512;37.764;2023-11-22T00:15:06;99897.09;;;-10.23;82.62
44198;BME280;30157;55.512;37.764;2023-11-22T00:17:33;99979.94;;;-9.80;82.93
44198;BME280;30157;55.512;37.764;2023-11-22T00:20:00;99970.16;;;-9.77;82.75
44198;BME280;30157;55.512;37.764;2023-11-22T00:22:32;99956.13;;;-9.85;82.64
44198;BME280;30157;55.512;37.764;2023-11-22T00:25:01;99890.22;;;-10.25;82.49
44198;BME280;30157;55.512;37.764;2023-11-22T00:27:31;99950.84;;;-9.88;83.00
44198;BME280;30157;55.512;37.764;2023-11-22T00:29:58;99871.16;;;-10.34;82.49
44198;BME280;30157;55.512;37.764;2023-11-22T00:32:24;99951.47;;;-9.91;82.88
44198;BME280;30157;55.512;37.764;2023-11-22T00:34:51;99955.00;;;-9.89;83.04
44198;BME280;30157;55.512;37.764;2023-11-22T00:37:18;99977.19;;;-9.83;83.00
44198;BME280;30157;55.512;37.764;2023-11-22T00:39:44;99967.03;;;-9.85;82.99
44198;BME280;30157;55.512;37.764;2023-11-22T00:42:10;99954.50;;;-9.95;82.76
44198;BME280;30157;55.512;37.764;2023-11-22T00:44:37;99948.84;;;-9.92;83.23
44198;BME280;30157;55.512;37.764;2023-11-22T00:47:04;99963.78;;;-9.84;83.50
44198;BME280;30157;55.512;37.764;2023-11-22T00:49:30;99920.28;;;-10.15;83.12
44198;BME280;30157;55.512;37.764;2023-11-22T00:51:56;99940.00;;;-10.09;83.27
44198;BME280;30157;55.512;37.764;2023-11-22T00:54:24;99953.25;;;-10.00;83.29
44198;BME280;30157;55.512;37.764;2023-11-22T00:56:50;99962.00;;;-9.85;83.44
44198;BME280;30157;55.512;37.764;2023-11-22T00:59:16;99898.47;;;-10.16;83.66
44198;BME280;30157;55.512;37.764;2023-11-22T01:01:42;99944.66;;;-9.82;83.40
44198;BME280;30157;55.512;37.764;2023-11-22T01:04:08;99880.25;;;-10.14;82.97
44198;BME280;30157;55.512;37.764;2023-11-22T01:06:34;99959.50;;;-9.63;83.05
44198;BME280;30157;55.512;37.764;2023-11-22T01:09:02;99954.22;;;-9.55;83.37
44198;BME280;30157;55.512;37.764;2023-11-22T01:11:29;99956.31;;;-9.50;82.72
44198;BME280;30157;55.512;37.764;2023-11-22T01:13:55;99940.75;;;-9.56;82.69
44198;BME280;30157;55.512;37.764;2023-11-22T01:16:22;99950.25;;;-9.41;82.57
44198;BME280;30157;55.512;37.764;2023-11-22T01:18:49;99945.44;;;-9.38;82.23
44198;BME280;30157;55.512;37.764;2023-11-22T01:21:14;99929.69;;;-9.48;82.35
44198;BME280;30157;55.512;37.764;2023-11-22T01:23:40;99873.69;;;-9.79;82.32
44198;BME280;30157;55.512;37.764;2023-11-22T01:26:06;99928.38;;;-9.42;81.95
44198;BME280;30157;55.512;37.764;2023-11-22T01:28:32;99881.69;;;-9.73;81.83
44198;BME280;30157;55.512;37.764;2023-11-22T01:31:01;99919.63;;;-9.48;82.24
44198;BME280;30157;55.512;37.764;2023-11-22T01:33:30;99951.97;;;-9.30;82.38
44198;BME280;30157;55.512;37.764;2023-11-22T01:35:58;99871.75;;;-9.71;82.71
44198;BME280;30157;55.512;37.764;2023-11-22T01:38:24;99882.97;;;-9.56;83.06
44198;BME280;30157;55.512;37.764;2023-11-22T01:40:51;99930.69;;;-9.23;82.59
44198;BME280;30157;55.512;37.764;2023-11-22T01:43:19;99942.41;;;-9.12;82.27
44198;BME280;30157;55.512;37.764;2023-11-22T01:45:45;99933.31;;;-9.22;82.50
44198;BME280;30157;55.512;37.764;2023-11-22T01:48:11;99853.22;;;-9.62;82.46
44198;BME280;30157;55.512;37.764;2023-11-22T01:50:38;99928.91;;;-9.24;82.22
44198;BME280;30157;55.512;37.764;2023-11-22T01:53:06;99826.06;;;-9.77;81.88
44198;BME280;30157;55.512;37.764;2023-11-22T01:55:32;99925.88;;;-9.20;81.98
44198;BME280;30157;55.512;37.764;2023-11-22T01:57:59;99910.94;;;-9.29;82.23
44198;BME280;30157;55.512;37.764;2023-11-22T02:00:26;99955.19;;;-9.09;81.95
44198;BME280;30157;55.512;37.764;2023-11-22T02:02:54;99931.53;;;-9.23;82.17
44198;BME280;30157;55.512;37.764;2023-11-22T02:05:19;99930.53;;;-9.25;82.04
44198;BME280;30157;55.512;37.764;2023-11-22T02:07:45;99956.09;;;-9.08;82.33
44198;BME280;30157;55.512;37.764;2023-11-22T02:10:12;99825.84;;;-9.81;82.24
44198;BME280;30157;55.512;37.764;2023-11-22T02:12:38;99893.28;;;-9.41;82.17
44198;BME280;30157;55.512;37.764;2023-11-22T02:15:05;99870.88;;;-9.50;81.74
44198;BME280;30157;55.512;37.764;2023-11-22T02:17:36;99938.34;;;-9.10;82.07
44198;BME280;30157;55.512;37.764;2023-11-22T02:20:02;99953.03;;;-9.04;81.85
44198;BME280;30157;55.512;37.764;2023-11-22T02:22:32;99931.47;;;-9.13;81.71
44198;BME280;30157;55.512;37.764;2023-11-22T02:24:57;99870.75;;;-9.51;81.92
44198;BME280;30157;55.512;37.764;2023-11-22T02:27:23;99872.00;;;-9.46;82.03
44198;BME280;30157;55.512;37.764;2023-11-22T02:29:49;99953.75;;;-8.95;81.83
44198;BME280;30157;55.512;37.764;2023-11-22T02:32:15;99894.13;;;-9.30;81.87
44198;BME280;30157;55.512;37.764;2023-11-22T02:34:41;99944.53;;;-8.95;81.49
44198;BME280;30157;55.512;37.764;2023-11-22T02:37:07;99876.50;;;-9.42;81.77
44198;BME280;30157;55.512;37.764;2023-11-22T02:39:57;99926.66;;;-9.09;81.94
44198;BME280;30157;55.512;37.764;2023-11-22T02:42:24;99936.41;;;-9.02;82.11
44198;BME280;30157;55.512;37.764;2023-11-22T02:44:49;99937.06;;;-9.05;81.83
44198;BME280;30157;55.512;37.764;2023-11-22T02:47:15;99948.47;;;-8.98;82.08
44198;BME280;30157;55.512;37.764;2023-11-22T02:49:41;99938.72;;;-9.05;81.75
44198;BME280;30157;55.512;37.764;2023-11-22T02:52:06;99948.25;;;-9.01;81.75
44198;BME280;30157;55.512;37.764;2023-11-22T02:54:32;99926.19;;;-9.16;81.52
44198;BME280;30157;55.512;37.764;2023-11-22T02:56:59;99955.25;;;-8.97;81.42
44198;BME280;30157;55.512;37.764;2023-11-22T02:59:25;99963.56;;;-8.98;81.30
44198;BME280;30157;55.512;37.764;2023-11-22T03:01:51;99945.13;;;-9.09;81.42
44198;BME280;30157;55.512;37.764;2023-11-22T03:04:17;99876.13;;;-9.47;81.14
44198;BME280;30157;55.512;37.764;2023-11-22T03:06:43;99949.09;;;-9.01;81.32
44198;BME280;30157;55.512;37.764;2023-11-22T03:09:09;99960.06;;;-9.00;81.18
44198;BME280;30157;55.512;37.764;2023-11-22T03:11:34;99959.06;;;-9.02;81.55
44198;BME280;30157;55.512;37.764;2023-11-22T03:14:00;99889.81;;;-9.43;81.35
44198;BME280;30157;55.512;37.764;2023-11-22T03:16:30;99953.28;;;-9.01;81.67
44198;BME280;30157;55.512;37.764;2023-11-22T03:18:56;99940.38;;;-9.06;81.69
44198;BME280;30157;55.512;37.764;2023-11-22T03:21:23;99955.13;;;-8.99;81.71
44198;BME280;30157;55.512;37.764;2023-11-22T03:23:51;99926.63;;;-9.21;82.02
44198;BME280;30157;55.512;37.764;2023-11-22T03:26:18;99958.41;;;-9.00;82.58
44198;BME280;30157;55.512;37.764;2023-11-22T03:28:44;99963.09;;;-9.04;82.52
44198;BME280;30157;55.512;37.764;2023-11-22T03:31:10;99947.53;;;-9.10;82.72
44198;BME280;30157;55.512;37.764;2023-11-22T03:33:36;99894.09;;;-9.42;82.31
44198;BME280;30157;55.512;37.764;2023-11-22T03:36:03;99890.22;;;-9.49;82.03
44198;BME280;30157;55.512;37.764;2023-11-22T03:38:30;99959.16;;;-9.13;82.20
44198;BME280;30157;55.512;37.764;2023-11-22T03:40:56;99939.72;;;-9.25;82.62
44198;BME280;30157;55.512;37.764;2023-11-22T03:43:22;99951.13;;;-9.19;82.52
44198;BME280;30157;55.512;37.764;2023-11-22T03:45:47;99971.19;;;-9.08;82.41
44198;BME280;30157;55.512;37.764;2023-11-22T03:48:13;99959.00;;;-9.14;82.62
44198;BME280;30157;55.512;37.764;2023-11-22T03:50:39;99970.19;;;-9.10;82.65
44198;BME280;30157;55.512;37.764;2023-11-22T03:53:04;99866.44;;;-9.64;82.97
44198;BME280;30157;55.512;37.764;2023-11-22T03:55:31;99975.31;;;-9.09;82.43
44198;BME280;30157;55.512;37.764;2023-11-22T03:57:57;99961.50;;;-9.26;82.24
44198;BME280;30157;55.512;37.764;2023-11-22T04:00:22;99966.44;;;-9.16;82.31
44198;BME280;30157;55.512;37.764;2023-11-22T04:02:49;99956.47;;;-9.26;82.28
44198;BME280;30157;55.512;37.764;2023-11-22T04:05:15;99982.69;;;-9.22;82.40
44198;BME280;30157;55.512;37.764;2023-11-22T04:07:41;99910.38;;;-9.59;82.20
44198;BME280;30157;55.512;37.764;2023-11-22T04:10:07;99983.94;;;-9.17;82.40
44198;BME280;30157;55.512;37.764;2023-11-22T04:12:33;99898.88;;;-9.67;82.29
44198;BME280;30157;55.512;37.764;2023-11-22T04:14:58;99982.94;;;-9.19;82.55
44198;BME280;30157;55.512;37.764;2023-11-22T04:17:24;99982.41;;;-9.15;82.48
44198;BME280;30157;55.512;37.764;2023-11-22T04:19:50;99980.78;;;-9.15;82.56
44198;BME280;30157;55.512;37.764;2023-11-22T04:22:16;99899.22;;;-9.63;82.61
44198;BME280;30157;55.512;37.764;2023-11-22T04:24:41;99979.38;;;-9.11;82.07
44198;BME280;30157;55.512;37.764;2023-11-22T04:27:08;99976.84;;;-9.11;81.79
44198;BME280;30157;55.512;37.764;2023-11-22T04:29:33;99971.56;;;-9.14;82.13
44198;BME280;30157;55.512;37.764;2023-11-22T04:31:59;99915.00;;;-9.53;81.25
44198;BME280;30157;55.512;37.764;2023-11-22T04:34:25;99977.63;;;-9.12;81.28
44198;BME280;30157;55.512;37.764;2023-11-22T04:36:51;99968.09;;;-9.16;81.11
44198;BME280;30157;55.512;37.764;2023-11-22T04:39:16;99947.03;;;-9.29;80.89
44198;BME280;30157;55.512;37.764;2023-11-22T04:41:43;99906.88;;;-9.61;80.84
44198;BME280;30157;55.512;37.764;2023-11-22T04:44:08;99908.88;;;-9.57;80.79
44198;BME280;30157;55.512;37.764;2023-11-22T04:46:34;99976.50;;;-9.16;81.03
44198;BME280;30157;55.512;37.764;2023-11-22T04:49:00;99900.44;;;-9.57;80.62
44198;BME280;30157;55.512;37.764;2023-11-22T04:51:26;99968.88;;;-9.27;80.56
44198;BME280;30157;55.512;37.764;2023-11-22T04:53:54;99977.66;;;-9.22;80.61
44198;BME280;30157;55.512;37.764;2023-11-22T04:56:20;99987.56;;;-9.14;80.20
44198;BME280;30157;55.512;37.764;2023-11-22T04:58:46;99984.28;;;-9.13;80.31
44198;BME280;30157;55.512;37.764;2023-11-22T05:01:11;99931.91;;;-9.40;80.17
44198;BME280;30157;55.512;37.764;2023-11-22T05:03:37;99990.94;;;-9.13;80.02
44198;BME280;30157;55.512;37.764;2023-11-22T05:06:04;99947.22;;;-9.37;80.44
44198;BME280;30157;55.512;37.764;2023-11-22T05:08:30;99986.91;;;-9.11;80.36
44198;BME280;30157;55.512;37.764;2023-11-22T05:10:56;99922.78;;;-9.50;80.47
44198;BME280;30157;55.512;37.764;2023-11-22T05:13:21;99996.44;;;-9.07;80.31
44198;BME280;30157;55.512;37.764;2023-11-22T05:15:47;99989.81;;;-9.17;80.10
44198;BME280;30157;55.512;37.764;2023-11-22T05:18:13;100007.16;;;-9.09;79.91
44198;BME280;30157;55.512;37.764;2023-11-22T05:20:38;100007.69;;;-9.14;79.84
44198;BME280;30157;55.512;37.764;2023-11-22T05:23:04;100004.91;;;-9.17;79.69
44198;BME280;30157;55.512;37.764;2023-11-22T05:25:30;100002.66;;;-9.14;80.43
44198;BME280;30157;55.512;37.764;2023-11-22T05:27:56;99986.84;;;-9.23;80.11
44198;BME280;30157;55.512;37.764;2023-11-22T05:30:21;99990.34;;;-9.21;80.11
44198;BME280;30157;55.512;37.764;2023-11-22T05:32:49;99925.56;;;-9.57;80.13
44198;BME280;30157;55.512;37.764;2023-11-22T05:35:14;100001.47;;;-9.07;80.63
44198;BME280;30157;55.512;37.764;2023-11-22T05:37:40;100012.63;;;-9.03;80.53
44198;BME280;30157;55.512;37.764;2023-11-22T05:40:06;99997.97;;;-9.09;80.15
44198;BME280;30157;55.512;37.764;2023-11-22T05:42:35;100004.84;;;-9.06;80.22
44198;BME280;30157;55.512;37.764;2023-11-22T05:45:01;100002.44;;;-9.05;80.32
44198;BME280;30157;55.512;37.764;2023-11-22T05:47:30;100015.41;;;-9.00;80.29
44198;BME280;30157;55.512;37.764;2023-11-22T05:49:56;99939.22;;;-9.43;80.27
44198;BME280;30157;55.512;37.764;2023-11-22T05:52:22;100016.50;;;-8.97;79.97
44198;BME280;30157;55.512;37.764;2023-11-22T05:54:49;99995.97;;;-9.13;80.17
44198;BME280;30157;55.512;37.764;2023-11-22T05:57:15;99990.19;;;-9.12;80.47
44198;BME280;30157;55.512;37.764;2023-11-22T05:59:40;100015.41;;;-9.00;80.55
44198;BME280;30157;55.512;37.764;2023-11-22T06:02:06;100017.59;;;-8.93;80.09
44198;BME280;30157;55.512;37.764;2023-11-22T06:04:32;100015.09;;;-8.93;79.96
44198;BME280;30157;55.512;37.764;2023-11-22T06:06:57;100006.19;;;-9.00;79.77
44198;BME280;30157;55.512;37.764;2023-11-22T06:09:23;99990.19;;;-9.12;79.84
44198;BME280;30157;55.512;37.764;2023-11-22T06:11:49;99996.34;;;-9.08;79.81
44198;BME280;30157;55.512;37.764;2023-11-22T06:14:15;99998.22;;;-9.06;79.77
44198;BME280;30157;55.512;37.764;2023-11-22T06:16:41;100000.34;;;-9.10;79.67
44198;BME280;30157;55.512;37.764;2023-11-22T06:19:07;99999.06;;;-9.05;79.86
44198;BME280;30157;55.512;37.764;2023-11-22T06:21:33;100012.34;;;-8.96;80.09
44198;BME280;30157;55.512;37.764;2023-11-22T06:23:59;99917.34;;;-9.44;79.88
44198;BME280;30157;55.512;37.764;2023-11-22T06:26:27;100004.22;;;-9.04;79.73
44198;BME280;30157;55.512;37.764;2023-11-22T06:28:53;99991.88;;;-9.01;79.00
44198;BME280;30157;55.512;37.764;2023-11-22T06:31:19;100016.84;;;-8.92;79.32
44198;BME280;30157;55.512;37.764;2023-11-22T06:33:45;99957.22;;;-9.27;79.08
44198;BME280;30157;55.512;37.764;2023-11-22T06:36:11;99985.50;;;-9.07;79.24
44198;BME280;30157;55.512;37.764;2023-11-22T06:38:38;100017.19;;;-8.87;79.26
44198;BME280;30157;55.512;37.764;2023-11-22T06:41:04;100020.50;;;-8.88;78.78
44198;BME280;30157;55.512;37.764;2023-11-22T06:43:30;99931.00;;;-9.41;78.78
44198;BME280;30157;55.512;37.764;2023-11-22T06:45:55;99954.22;;;-9.33;78.25
44198;BME280;30157;55.512;37.764;2023-11-22T06:48:21;99983.16;;;-9.16;78.33
44198;BME280;30157;55.512;37.764;2023-11-22T06:50:48;100025.16;;;-8.93;78.37
44198;BME280;30157;55.512;37.764;2023-11-22T06:53:13;100032.59;;;-8.95;78.27
44198;BME280;30157;55.512;37.764;2023-11-22T06:55:39;100028.53;;;-8.92;78.14
44198;BME280;30157;55.512;37.764;2023-11-22T06:58:05;99952.34;;;-9.36;77.78
44198;BME280;30157;55.512;37.764;2023-11-22T07:00:31;100035.69;;;-8.87;77.31
44198;BME280;30157;55.512;37.764;2023-11-22T07:02:58;100033.44;;;-8.94;76.99
44198;BME280;30157;55.512;37.764;2023-11-22T07:05:24;99988.63;;;-9.22;77.09
44198;BME280;30157;55.512;37.764;2023-11-22T07:07:49;100036.88;;;-8.93;77.53
44198;BME280;30157;55.512;37.764;2023-11-22T07:10:15;100038.59;;;-8.92;77.82
44198;BME280;30157;55.512;37.764;2023-11-22T07:12:41;100048.81;;;-8.91;77.62
44198;BME280;30157;55.512;37.764;2023-11-22T07:15:09;100021.50;;;-9.08;77.79
44198;BME280;30157;55.512;37.764;2023-11-22T07:17:35;100039.13;;;-8.97;77.76
44198;BME280;30157;55.512;37.764;2023-11-22T07:20:02;100027.28;;;-9.09;77.88
44198;BME280;30157;55.512;37.764;2023-11-22T07:22:32;100048.00;;;-9.02;78.37
44198;BME280;30157;55.512;37.764;2023-11-22T07:24:59;100059.88;;;-8.99;78.15
44198;BME280;30157;55.512;37.764;2023-11-22T07:27:30;99845.28;;;-10.33;77.62
44198;BME280;30157;55.512;37.764;2023-11-22T07:29:59;100046.97;;;-9.26;77.50
44198;BME280;30157;55.512;37.764;2023-11-22T07:32:25;100064.78;;;-9.13;77.40
44198;BME280;30157;55.512;37.764;2023-11-22T07:34:51;100007.84;;;-9.44;77.52
44198;BME280;30157;55.512;37.764;2023-11-22T07:37:22;99993.69;;;-9.54;77.87
44198;BME280;30157;55.512;37.764;2023-11-22T07:39:47;100069.28;;;-9.08;77.95
44198;BME280;30157;55.512;37.764;2023-11-22T07:42:15;100080.31;;;-9.06;78.21
44198;BME280;30157;55.512;37.764;2023-11-22T07:44:40;100064.09;;;-9.10;78.37
44198;BME280;30157;55.512;37.764;2023-11-22T07:47:07;100081.25;;;-8.94;78.68
44198;BME280;30157;55.512;37.764;2023-11-22T07:49:35;100083.25;;;-8.90;78.43
44198;BME280;30157;55.512;37.764;2023-11-22T07:52:05;100024.34;;;-9.26;77.44
44198;BME280;30157;55.512;37.764;2023-11-22T07:54:32;100063.22;;;-9.10;77.69
44198;BME280;30157;55.512;37.764;2023-11-22T07:56:58;100066.38;;;-9.13;77.23
44198;BME280;30157;55.512;37.764;2023-11-22T07:59:24;100068.50;;;-9.07;75.67
44198;BME280;30157;55.512;37.764;2023-11-22T08:01:49;99987.63;;;-9.46;75.57
44198;BME280;30157;55.512;37.764;2023-11-22T08:04:15;100003.00;;;-9.31;75.38
44198;BME280;30157;55.512;37.764;2023-11-22T08:06:45;99935.59;;;-6.98;71.24
44198;BME280;30157;55.512;37.764;2023-11-22T08:09:11;99882.13;;;-5.00;65.46
44198;BME280;30157;55.512;37.764;2023-11-22T08:11:38;100033.13;;;-2.24;60.79
44198;BME280;30157;55.512;37.764;2023-11-22T08:14:04;99980.50;;;-1.35;59.04
44198;BME280;30157;55.512;37.764;2023-11-22T08:16:31;100044.47;;;-0.32;55.56
44198;BME280;30157;55.512;37.764;2023-11-22T08:18:58;100036.16;;;-0.07;52.91
44198;BME280;30157;55.512;37.764;2023-11-22T08:21:24;100037.69;;;0.30;51.93
44198;BME280;30157;55.512;37.764;2023-11-22T08:23:50;100030.34;;;0.60;50.24
44198;BME280;30157;55.512;37.764;2023-11-22T08:26:16;100041.22;;;0.77;48.67
44198;BME280;30157;55.512;37.764;2023-11-22T08:28:41;100041.25;;;1.24;49.51
44198;BME280;30157;55.512;37.764;2023-11-22T08:31:07;99914.53;;;-0.29;49.36
44198;BME280;30157;55.512;37.764;2023-11-22T08:33:37;100039.53;;;-1.44;50.71
44198;BME280;30157;55.512;37.764;2023-11-22T08:36:07;99964.56;;;-2.90;53.86
44198;BME280;30157;55.512;37.764;2023-11-22T08:38:33;100023.66;;;-3.57;54.54
44198;BME280;30157;55.512;37.764;2023-11-22T08:41:03;100033.56;;;-4.51;55.60
44198;BME280;30157;55.512;37.764;2023-11-22T08:43:32;100056.66;;;-5.17;57.60
44198;BME280;30157;55.512;37.764;2023-11-22T08:45:59;99973.56;;;-6.06;59.29
44198;BME280;30157;55.512;37.764;2023-11-22T08:48:25;100052.69;;;-5.94;60.02
44198;BME280;30157;55.512;37.764;2023-11-22T08:50:52;100032.53;;;-6.32;61.11
44198;BME280;30157;55.512;37.764;2023-11-22T08:53:19;100043.69;;;-6.29;61.60
44198;BME280;30157;55.512;37.764;2023-11-22T08:55:47;99964.91;;;-6.75;61.99
44198;BME280;30157;55.512;37.764;2023-11-22T08:58:13;100020.25;;;-6.39;62.08
44198;BME280;30157;55.512;37.764;2023-11-22T09:00:40;100042.63;;;-6.32;62.15
44198;BME280;30157;55.512;37.764;2023-11-22T09:03:07;100014.28;;;-6.53;62.56
44198;BME280;30157;55.512;37.764;2023-11-22T09:05:34;100033.91;;;-6.24;62.99
44198;BME280;30157;55.512;37.764;2023-11-22T09:08:00;100040.03;;;-6.20;63.48
44198;BME280;30157;55.512;37.764;2023-11-22T09:10:25;100037.09;;;-6.27;62.41
44198;BME280;30157;55.512;37.764;2023-11-22T09:12:52;100040.69;;;-6.36;62.96
44198;BME280;30157;55.512;37.764;2023-11-22T09:15:18;100027.00;;;-6.52;63.59
44198;BME280;30157;55.512;37.764;2023-11-22T09:17:49;100022.81;;;-6.65;63.49
44198;BME280;30157;55.512;37.764;2023-11-22T09:20:17;100036.53;;;-6.48;63.89
44198;BME280;30157;55.512;37.764;2023-11-22T09:22:51;99957.50;;;-6.72;63.78
44198;BME280;30157;55.512;37.764;2023-11-22T09:25:19;100014.09;;;-6.04;63.91
44198;BME280;30157;55.512;37.764;2023-11-22T09:27:46;100022.25;;;-5.82;63.28
44198;BME280;30157;55.512;37.764;2023-11-22T09:30:16;100039.34;;;-5.78;62.40
44198;BME280;30157;55.512;37.764;2023-11-22T09:33:02;100049.88;;;-5.85;61.96
44198;BME280;30157;55.512;37.764;2023-11-22T09:35:29;100046.94;;;-5.91;61.73
44198;BME280;30157;55.512;37.764;2023-11-22T09:38:00;100037.06;;;-6.01;61.84
44198;BME280;30157;55.512;37.764;2023-11-22T09:40:27;100025.94;;;-6.17;61.94
44198;BME280;30157;55.512;37.764;2023-11-22T09:42:58;100036.38;;;-5.99;62.53
44198;BME280;30157;55.512;37.764;2023-11-22T09:45:25;100039.16;;;-5.94;62.12
44198;BME280;30157;55.512;37.764;2023-11-22T09:47:51;99953.28;;;-6.46;62.33
44198;BME280;30157;55.512;37.764;2023-11-22T09:50:26;100031.47;;;-5.96;61.99
44198;BME280;30157;55.512;37.764;2023-11-22T09:52:59;100051.72;;;-5.82;62.25
44198;BME280;30157;55.512;37.764;2023-11-22T09:55:28;100036.28;;;-6.00;61.99
44198;BME280;30157;55.512;37.764;2023-11-22T09:57:58;100036.75;;;-6.06;62.24
44198;BME280;30157;55.512;37.764;2023-11-22T10:00:28;99971.19;;;-6.43;62.98
44198;BME280;30157;55.512;37.764;2023-11-22T10:02:56;100028.47;;;-6.03;63.12
44198;BME280;30157;55.512;37.764;2023-11-22T10:05:24;99963.03;;;-6.39;63.34
44198;BME280;30157;55.512;37.764;2023-11-22T10:07:49;100030.22;;;-5.89;62.85
44198;BME280;30157;55.512;37.764;2023-11-22T10:10:16;100041.09;;;-5.90;63.46
44198;BME280;30157;55.512;37.764;2023-11-22T10:12:44;100030.34;;;-6.01;63.42
44198;BME280;30157;55.512;37.764;2023-11-22T10:15:14;100013.72;;;-6.11;64.15
44198;BME280;30157;55.512;37.764;2023-11-22T10:17:57;99967.91;;;-6.42;64.25
44198;BME280;30157;55.512;37.764;2023-11-22T10:20:37;100033.50;;;-6.17;64.39
44198;BME280;30157;55.512;37.764;2023-11-22T10:23:03;99977.47;;;-6.63;65.02
44198;BME280;30157;55.512;37.764;2023-11-22T10:25:29;100017.84;;;-6.38;65.42
44198;BME280;30157;55.512;37.764;2023-11-22T10:27:57;100035.09;;;-6.19;65.58
44198;BME280;30157;55.512;37.764;2023-11-22T10:30:23;99905.66;;;-7.05;65.32
44198;BME280;30157;55.512;37.764;2023-11-22T10:32:50;100044.50;;;-6.30;65.45
44198;BME280;30157;55.512;37.764;2023-11-22T10:35:16;100041.34;;;-6.39;65.58
44198;BME280;30157;55.512;37.764;2023-11-22T10:37:42;99984.41;;;-6.72;65.43
44198;BME280;30157;55.512;37.764;2023-11-22T10:40:12;100053.50;;;-6.33;65.10
44198;BME280;30157;55.512;37.764;2023-11-22T10:42:42;100052.16;;;-6.28;64.85
44198;BME280;30157;55.512;37.764;2023-11-22T10:45:12;100045.34;;;-6.29;64.95
44198;BME280;30157;55.512;37.764;2023-11-22T10:47:39;100041.97;;;-6.30;64.96
44198;BME280;30157;55.512;37.764;2023-11-22T10:50:08;99932.03;;;-6.88;64.82
44198;BME280;30157;55.512;37.764;2023-11-22T10:52:35;100039.56;;;-6.15;65.07
44198;BME280;30157;55.512;37.764;2023-11-22T10:55:03;100029.84;;;-6.09;65.27
44198;BME280;30157;55.512;37.764;2023-11-22T10:57:44;100031.00;;;-6.03;65.21
44198;BME280;30157;55.512;37.764;2023-11-22T11:00:11;100006.09;;;-6.24;65.45
44198;BME280;30157;55.512;37.764;2023-11-22T11:02:45;99978.00;;;-6.42;65.43
44198;BME280;30157;55.512;37.764;2023-11-22T11:05:18;100033.75;;;-6.14;65.53
44198;BME280;30157;55.512;37.764;2023-11-22T11:08:00;100024.97;;;-6.19;65.71
44198;BME280;30157;55.512;37.764;2023-11-22T11:10:30;100022.22;;;-6.22;65.89
44198;BME280;30157;55.512;37.764;2023-11-22T11:12:57;100014.94;;;-6.31;66.44
44198;BME280;30157;55.512;37.764;2023-11-22T11:15:23;99918.94;;;-6.83;66.34
44198;BME280;30157;55.512;37.764;2023-11-22T11:17:49;100034.56;;;-6.27;66.31
44198;BME280;30157;55.512;37.764;2023-11-22T11:20:16;100006.06;;;-6.37;66.36
44198;BME280;30157;55.512;37.764;2023-11-22T11:22:44;100016.69;;;-6.30;66.15
44198;BME280;30157;55.512;37.764;2023-11-22T11:25:15;99928.28;;;-6.82;66.11
44198;BME280;30157;55.512;37.764;2023-11-22T11:27:45;100014.31;;;-6.40;66.23
44198;BME280;30157;55.512;37.764;2023-11-22T11:32:58;100000.84;;;-6.66;66.87
44198;BME280;30157;55.512;37.764;2023-11-22T11:35:47;99994.09;;;-6.79;67.17
44198;BME280;30157;55.512;37.764;2023-11-22T11:38:14;99990.47;;;-6.96;67.57
44198;BME280;30157;55.512;37.764;2023-11-22T11:40:43;100008.84;;;-6.85;67.83
44198;BME280;30157;55.512;37.764;2023-11-22T11:43:11;99970.09;;;-7.11;68.24
44198;BME280;30157;55.512;37.764;2023-11-22T11:45:42;99943.53;;;-7.31;68.17
44198;BME280;30157;55.512;37.764;2023-11-22T11:48:13;99827.66;;;-8.03;68.35
44198;BME280;30157;55.512;37.764;2023-11-22T11:50:40;99936.81;;;-7.30;68.88
44198;BME280;30157;55.512;37.764;2023-11-22T11:53:06;100000.09;;;-6.90;69.00
44198;BME280;30157;55.512;37.764;2023-11-22T11:55:32;100011.28;;;-6.86;69.45
44198;BME280;30157;55.512;37.764;2023-11-22T11:58:06;99994.41;;;-6.99;69.75
44198;BME280;30157;55.512;37.764;2023-11-22T12:00:36;99931.16;;;-7.39;69.47
44198;BME280;30157;55.512;37.764;2023-11-22T12:03:09;100013.66;;;-6.88;69.74
44198;BME280;30157;55.512;37.764;2023-11-22T12:05:38;100021.81;;;-6.92;69.93
44198;BME280;30157;55.512;37.764;2023-11-22T12:08:04;100018.97;;;-6.97;70.12
44198;BME280;30157;55.512;37.764;2023-11-22T12:10:31;100010.16;;;-7.15;70.18
44198;BME280;30157;55.512;37.764;2023-11-22T12:12:57;100030.88;;;-7.07;70.32
44198;BME280;30157;55.512;37.764;2023-11-22T12:15:25;100018.19;;;-7.21;70.57
44198;BME280;30157;55.512;37.764;2023-11-22T12:17:50;100019.56;;;-7.13;70.82
44198;BME280;30157;55.512;37.764;2023-11-22T12:20:17;100026.47;;;-7.10;70.74
44198;BME280;30157;55.512;37.764;2023-11-22T12:22:44;100015.66;;;-7.21;70.55
44198;BME280;30157;55.512;37.764;2023-11-22T12:25:11;99974.84;;;-7.52;70.90
44198;BME280;30157;55.512;37.764;2023-11-22T12:27:44;100028.81;;;-7.25;71.29
44198;BME280;30157;55.512;37.764;2023-11-22T12:30:34;100044.72;;;-7.14;71.52
44198;BME280;30157;55.512;37.764;2023-11-22T12:33:05;100032.00;;;-7.28;71.38
44198;BME280;30157;55.512;37.764;2023-11-22T12:35:31;100033.78;;;-7.27;71.45
44198;BME280;30157;55.512;37.764;2023-11-22T12:38:00;99968.03;;;-7.65;72.05
44198;BME280;30157;55.512;37.764;2023-11-22T12:40:29;100042.53;;;-7.21;72.35
44198;BME280;30157;55.512;37.764;2023-11-22T12:43:01;99964.66;;;-7.66;72.07
44198;BME280;30157;55.512;37.764;2023-11-22T12:45:28;100032.09;;;-7.26;72.46
44198;BME280;30157;55.512;37.764;2023-11-22T12:47:56;100012.41;;;-7.44;72.47